createdAt,value
2017-11-12T00:00:18.012Z,3
2017-11-12T00:02:17.682Z,3.4
2017-11-12T00:04:18.371Z,2.9
2017-11-12T00:06:17.045Z,3
2017-11-12T00:08:17.727Z,3
2017-11-12T00:10:17.385Z,3.5
2017-11-12T00:12:18.053Z,3.3
2017-11-12T00:14:17.713Z,3.4
2017-11-12T00:16:17.384Z,3.7
2017-11-12T00:18:18.048Z,3.6
2017-11-12T00:20:17.689Z,3.9
2017-11-12T00:22:18.354Z,3.7
2017-11-12T00:24:18.025Z,3.5
2017-11-12T00:26:17.696Z,3.4
2017-11-12T00:28:18.364Z,3.2
2017-11-12T00:30:18.035Z,3.2
2017-11-12T00:32:17.708Z,3.3
2017-11-12T00:34:18.390Z,3
2017-11-12T00:36:17.054Z,3.5
2017-11-12T00:38:17.726Z,3.4
2017-11-12T00:40:17.387Z,2.8
2017-11-12T00:42:18.033Z,2.8
2017-11-12T00:44:17.705Z,3.2
2017-11-12T00:46:17.373Z,3.5
2017-11-12T00:48:18.045Z,2.9
2017-11-12T00:50:17.715Z,3
2017-11-12T00:52:17.394Z,2.6
2017-11-12T00:54:18.068Z,3.2
2017-11-12T00:56:20.717Z,3
2017-11-12T00:58:18.396Z,3.2
2017-11-12T01:00:18.078Z,2.9
2017-11-12T01:02:17.752Z,2.7
2017-11-12T01:04:17.433Z,3.6
2017-11-12T01:06:17.118Z,2.9
2017-11-12T01:08:17.779Z,3.5
2017-11-12T01:10:17.454Z,3.2
2017-11-12T01:12:18.131Z,3
2017-11-12T01:14:17.809Z,2.5
2017-11-12T01:16:17.483Z,3.4
2017-11-12T01:18:18.150Z,3
2017-11-12T01:20:17.811Z,3.4
2017-11-12T01:22:17.481Z,3.3
2017-11-12T01:24:18.143Z,3
2017-11-12T01:26:16.810Z,3.1
2017-11-12T01:28:17.449Z,4.1
2017-11-12T01:30:18.114Z,2.9
2017-11-12T01:32:17.776Z,2.9
2017-11-12T01:34:17.448Z,3.1
2017-11-12T01:36:17.120Z,2.4
2017-11-12T01:38:17.791Z,2.7
2017-11-12T01:40:17.457Z,3.2
2017-11-12T01:42:18.111Z,2.7
2017-11-12T01:44:17.757Z,3.6
2017-11-12T01:46:17.453Z,3.3
2017-11-12T01:48:18.110Z,3.3
2017-11-12T01:50:17.800Z,3.4
2017-11-12T01:52:17.467Z,3.3
2017-11-12T01:54:18.141Z,3.3
2017-11-12T01:56:16.824Z,3.6
2017-11-12T01:58:17.483Z,3.6
2017-11-12T02:00:18.153Z,3.7
2017-11-12T02:02:17.828Z,3.3
2017-11-12T02:04:17.505Z,3.7
2017-11-12T02:06:17.169Z,3.4
2017-11-12T02:08:17.837Z,3.4
2017-11-12T02:10:17.470Z,3.1
2017-11-12T02:12:18.154Z,3.3
2017-11-12T02:14:17.819Z,3.9
2017-11-12T02:16:17.493Z,3.8
2017-11-12T02:18:18.154Z,3.2
2017-11-12T02:20:17.832Z,3.7
2017-11-12T02:22:17.492Z,3.4
2017-11-12T02:24:18.156Z,3.4
2017-11-12T02:26:16.822Z,3
2017-11-12T02:28:17.478Z,3.4
2017-11-12T02:30:18.137Z,3.2
2017-11-12T02:32:17.780Z,3.6
2017-11-12T02:34:17.474Z,3.7
2017-11-12T02:36:17.129Z,3.4
2017-11-12T02:38:17.785Z,3.7
2017-11-12T02:40:17.427Z,3.6
2017-11-12T02:42:18.106Z,3.8
2017-11-12T02:44:17.779Z,3.6
2017-11-12T02:46:17.457Z,3.9
2017-11-12T02:48:18.131Z,3.6
2017-11-12T02:50:17.765Z,3.5
2017-11-12T02:52:17.463Z,4.4
2017-11-12T02:54:18.122Z,4.4
2017-11-12T02:56:20.758Z,3.3
2017-11-12T02:58:17.443Z,4.1
2017-11-12T03:00:18.122Z,3.4
2017-11-12T03:04:17.460Z,4.2
2017-11-12T03:06:21.091Z,5.1
2017-11-12T03:08:17.778Z,4
2017-11-12T03:10:17.434Z,4.5
2017-11-12T03:12:18.099Z,3.7
2017-11-12T03:14:17.757Z,3.8
2017-11-12T03:16:17.433Z,4.5
2017-11-12T03:18:18.066Z,4.4
2017-11-12T03:20:17.720Z,4.6
2017-11-12T03:22:17.371Z,4.4
2017-11-12T03:24:18.015Z,4.6
2017-11-12T03:26:20.648Z,4.8
2017-11-12T03:28:18.307Z,4.2
2017-11-12T03:30:17.962Z,4.2
2017-11-12T03:32:17.628Z,4.9
2017-11-12T03:34:18.271Z,5
2017-11-12T03:36:20.908Z,4.6
2017-11-12T03:38:17.582Z,4.2
2017-11-12T03:40:17.223Z,4.6
2017-11-12T03:42:17.884Z,4.3
2017-11-12T03:44:17.542Z,4.5
2017-11-12T03:46:18.176Z,4.7
2017-11-12T03:48:17.833Z,4.6
2017-11-12T03:52:17.109Z,4.7
2017-11-12T03:54:17.752Z,5.4
2017-11-12T03:56:17.418Z,4.6
2017-11-12T03:58:18.065Z,4.9
2017-11-12T04:00:17.725Z,4.7
2017-11-12T04:02:17.381Z,4.8
2017-11-12T04:04:18.040Z,4.9
2017-11-12T04:06:16.696Z,5.4
2017-11-12T04:08:18.333Z,5.1
2017-11-12T04:10:16.983Z,4.9
2017-11-12T04:12:17.635Z,5.2
2017-11-12T04:14:18.276Z,4
2017-11-12T04:16:20.921Z,4.5
2017-11-12T04:18:17.573Z,5.1
2017-11-12T04:20:18.224Z,5.4
2017-11-12T04:22:17.877Z,5.2
2017-11-12T04:24:17.536Z,5.2
2017-11-12T04:26:17.192Z,5.1
2017-11-12T04:28:17.840Z,4.8
2017-11-12T04:30:17.499Z,4.8
2017-11-12T04:32:18.148Z,5
2017-11-12T04:34:17.805Z,5.7
2017-11-12T04:36:21.453Z,5.2
2017-11-12T04:38:18.122Z,4.4
2017-11-12T04:40:17.767Z,4.8
2017-11-12T04:42:17.429Z,5.4
2017-11-12T04:44:18.088Z,4.7
2017-11-12T04:46:16.750Z,5.6
2017-11-12T04:48:17.380Z,4.6
2017-11-12T04:50:18.025Z,4.5
2017-11-12T04:52:17.687Z,5.2
2017-11-12T04:54:18.317Z,4.8
2017-11-12T04:56:17.959Z,5.5
2017-11-12T04:58:17.603Z,5.4
2017-11-12T05:00:18.244Z,5.4
2017-11-12T05:02:17.890Z,4.8
2017-11-12T05:04:17.538Z,4.8
2017-11-12T05:06:18.167Z,5
2017-11-12T05:08:17.823Z,4.6
2017-11-12T05:10:17.464Z,4.7
2017-11-12T05:12:18.118Z,4.3
2017-11-12T05:14:17.761Z,4.7
2017-11-12T05:16:17.400Z,4.6
2017-11-12T05:18:18.041Z,4.3
2017-11-12T05:20:17.688Z,4.6
2017-11-12T05:22:18.339Z,4.5
2017-11-12T05:24:17.980Z,5.4
2017-11-12T05:26:17.608Z,5.1
2017-11-12T05:28:18.254Z,5.4
2017-11-12T05:30:17.908Z,4.1
2017-11-12T05:32:17.564Z,4.3
2017-11-12T05:34:18.196Z,4.7
2017-11-12T05:36:20.840Z,4.4
2017-11-12T05:38:17.504Z,4.8
2017-11-12T05:40:17.163Z,4.4
2017-11-12T05:42:17.822Z,4.4
2017-11-12T05:44:17.490Z,4.2
2017-11-12T05:46:17.138Z,4.5
2017-11-12T05:48:17.783Z,4.8
2017-11-12T05:50:17.445Z,4.5
2017-11-12T05:52:18.089Z,4.7
2017-11-12T05:54:17.755Z,4.6
2017-11-12T05:56:17.416Z,4.2
2017-11-12T05:58:18.075Z,4.4
2017-11-12T06:00:17.717Z,4.9
2017-11-12T06:02:18.367Z,4.2
2017-11-12T06:04:18.026Z,4.9
2017-11-12T06:06:16.690Z,4.1
2017-11-12T06:08:18.345Z,4
2017-11-12T06:10:16.994Z,4.3
2017-11-12T06:12:17.644Z,4
2017-11-12T06:14:18.292Z,4.3
2017-11-12T06:16:20.926Z,4.2
2017-11-12T06:18:17.595Z,4.6
2017-11-12T06:20:18.252Z,4.2
2017-11-12T06:22:17.916Z,4.2
2017-11-12T06:24:17.566Z,4.3
2017-11-12T06:26:17.217Z,3.8
2017-11-12T06:28:17.860Z,4.1
2017-11-12T06:30:17.499Z,3.5
2017-11-12T06:32:18.147Z,3.3
2017-11-12T06:34:17.811Z,3.6
2017-11-12T06:36:21.461Z,3.6
2017-11-12T06:38:18.138Z,3.8
2017-11-12T06:40:17.784Z,4.1
2017-11-12T06:42:17.451Z,3.1
2017-11-12T06:44:18.096Z,3.9
2017-11-12T06:46:17.737Z,3.8
2017-11-12T06:48:17.389Z,3.4
2017-11-12T06:50:18.039Z,3.7
2017-11-12T06:52:17.693Z,3.6
2017-11-12T06:54:18.346Z,3
2017-11-12T06:56:17.013Z,3
2017-11-12T06:58:17.652Z,3.4
2017-11-12T07:00:18.313Z,4.1
2017-11-12T07:02:17.956Z,3
2017-11-12T07:04:17.613Z,3.9
2017-11-12T07:06:21.247Z,2.9
2017-11-12T07:08:17.899Z,3.1
2017-11-12T07:10:17.549Z,3.5
2017-11-12T07:12:18.208Z,2.9
2017-11-12T07:14:17.843Z,2.9
2017-11-12T07:16:17.504Z,3.2
2017-11-12T07:18:18.154Z,3.3
2017-11-12T07:20:17.830Z,2.6
2017-11-12T07:22:17.493Z,2.6
2017-11-12T07:24:18.142Z,2.7
2017-11-12T07:26:16.817Z,2.5
2017-11-12T07:28:17.474Z,2.8
2017-11-12T07:30:18.113Z,2.6
2017-11-12T07:32:17.772Z,2.8
2017-11-12T07:34:17.436Z,2.3
2017-11-12T07:36:17.117Z,2.7
2017-11-12T07:38:17.781Z,2.3
2017-11-12T07:40:17.452Z,2.2
2017-11-12T07:42:18.130Z,2.2
2017-11-12T07:44:17.812Z,2
2017-11-12T07:46:17.476Z,2.5
2017-11-12T07:48:18.134Z,2.2
2017-11-12T07:50:17.807Z,2.9
2017-11-12T07:52:17.481Z,2.2
2017-11-12T07:54:18.151Z,2.6
2017-11-12T07:56:16.825Z,2.7
2017-11-12T07:58:17.471Z,2.4
2017-11-12T08:00:18.133Z,2.7
2017-11-12T08:02:17.803Z,2.8
2017-11-12T08:04:17.477Z,2.4
2017-11-12T08:06:21.130Z,2.2
2017-11-12T08:08:17.815Z,2.6
2017-11-12T08:10:17.478Z,2.5
2017-11-12T08:12:18.148Z,2.9
2017-11-12T08:14:17.816Z,1.8
2017-11-12T08:16:17.493Z,2.2
2017-11-12T08:18:18.160Z,2.1
2017-11-12T08:20:17.823Z,2
2017-11-12T08:22:17.499Z,2
2017-11-12T08:24:18.179Z,2.4
2017-11-12T08:26:16.855Z,2.3
2017-11-12T08:28:17.527Z,2.5
2017-11-12T08:30:18.204Z,2.2
2017-11-12T08:32:17.895Z,1.9
2017-11-12T08:34:17.566Z,2.2
2017-11-12T08:36:21.221Z,2.4
2017-11-12T08:38:17.896Z,2.6
2017-11-12T08:40:17.566Z,2.2
2017-11-12T08:42:18.245Z,2.6
2017-11-12T08:44:17.925Z,2.4
2017-11-12T08:46:20.587Z,2.5
2017-11-12T08:48:18.279Z,2
2017-11-12T08:50:17.965Z,1.7
2017-11-12T08:52:17.649Z,2.3
2017-11-12T08:54:18.323Z,2.1
2017-11-12T08:56:17.016Z,2.3
2017-11-12T08:58:17.704Z,2.1
2017-11-12T09:00:18.392Z,1.9
2017-11-12T09:02:18.084Z,2
2017-11-12T09:04:17.780Z,1.8
2017-11-12T09:06:17.476Z,1.6
2017-11-12T09:08:18.167Z,1.6
2017-11-12T09:10:17.876Z,1.6
2017-11-12T09:12:17.567Z,1.5
2017-11-12T09:14:18.262Z,1.6
2017-11-12T09:16:16.971Z,1.7
2017-11-12T09:18:17.660Z,1.7
2017-11-12T09:20:18.353Z,1.7
2017-11-12T09:22:18.053Z,1.9
2017-11-12T09:24:17.755Z,1.7
2017-11-12T09:26:21.422Z,1.2
2017-11-12T09:28:18.137Z,2
2017-11-12T09:30:17.846Z,1.8
2017-11-12T09:32:17.553Z,1.4
2017-11-12T09:34:18.223Z,1.2
2017-11-12T09:36:16.921Z,1.4
2017-11-12T09:38:17.617Z,1.8
2017-11-12T09:40:17.329Z,1.2
2017-11-12T09:42:18.030Z,1.7
2017-11-12T09:44:17.721Z,1.4
2017-11-12T09:46:17.420Z,2
2017-11-12T09:48:18.137Z,1.6
2017-11-12T09:50:17.836Z,1.8
2017-11-12T09:52:17.539Z,1.1
2017-11-12T09:54:18.245Z,1.7
2017-11-12T09:56:16.968Z,1.9
2017-11-12T09:58:17.677Z,2.1
2017-11-12T10:00:18.392Z,1.8
2017-11-12T10:02:18.110Z,2.1
2017-11-12T10:04:17.840Z,1.7
2017-11-12T10:06:17.543Z,2.4
2017-11-12T10:08:18.262Z,2.2
2017-11-12T10:10:16.981Z,2.4
2017-11-12T10:12:17.696Z,2.1
2017-11-12T10:14:18.399Z,1.7
2017-11-12T10:16:17.111Z,1.7
2017-11-12T10:18:17.815Z,2.2
2017-11-12T10:20:17.526Z,1.5
2017-11-12T10:22:18.231Z,1.5
2017-11-12T10:24:17.946Z,1.8
2017-11-12T10:26:17.670Z,1.8
2017-11-12T10:28:18.377Z,1.8
2017-11-12T10:30:18.097Z,1.4
2017-11-12T10:32:17.809Z,1.6
2017-11-12T10:34:17.538Z,1.4
2017-11-12T10:36:17.251Z,1.5
2017-11-12T10:38:17.965Z,1.5
2017-11-12T10:40:17.700Z,1.3
2017-11-12T10:42:18.403Z,1.9
2017-11-12T10:44:18.138Z,1.5
2017-11-12T10:46:16.869Z,1.6
2017-11-12T10:48:17.572Z,1.8
2017-11-12T10:50:18.291Z,1.5
2017-11-12T10:52:18.017Z,1.3
2017-11-12T10:54:17.741Z,1.5
2017-11-12T10:56:17.457Z,1.5
2017-11-12T10:58:18.168Z,1.2
2017-11-12T11:00:17.883Z,1.3
2017-11-12T11:02:17.621Z,1.4
2017-11-12T11:04:18.342Z,1.6
2017-11-12T11:06:17.076Z,1.4
2017-11-12T11:08:17.797Z,2
2017-11-12T11:10:17.524Z,1.1
2017-11-12T11:12:18.254Z,1.1
2017-11-12T11:14:17.982Z,1.6
2017-11-12T11:16:17.728Z,0.9
2017-11-12T11:18:17.466Z,1.1
2017-11-12T11:20:18.211Z,1.1
2017-11-12T11:22:17.950Z,1.3
2017-11-12T11:24:17.693Z,1.1
2017-11-12T11:26:17.437Z,1.2
2017-11-12T11:28:18.165Z,1.4
2017-11-12T11:30:17.908Z,0.8
2017-11-12T11:32:17.633Z,1.4
2017-11-12T11:34:18.359Z,0.8
2017-11-12T11:36:17.104Z,1.3
2017-11-12T11:38:17.831Z,1.4
2017-11-12T11:40:17.564Z,1.2
2017-11-12T11:42:18.289Z,1
2017-11-12T11:44:18.026Z,1.4
2017-11-12T11:46:16.764Z,1.4
2017-11-12T11:48:17.500Z,1.4
2017-11-12T11:50:18.243Z,1.3
2017-11-12T11:56:17.795Z,1.1
2017-11-12T11:58:17.206Z,1.2
2017-11-12T12:00:17.959Z,1.1
2017-11-12T12:02:17.717Z,1.1
2017-11-12T12:04:18.438Z,1.3
2017-11-12T12:06:17.188Z,1.4
2017-11-12T12:08:17.962Z,1.1
2017-11-12T12:10:17.679Z,1.2
2017-11-12T12:12:18.460Z,1.3
2017-11-12T12:14:18.198Z,1.8
2017-11-12T12:16:16.911Z,1.3
2017-11-12T12:18:17.656Z,1.3
2017-11-12T12:20:18.412Z,1.3
2017-11-12T12:22:21.143Z,1.2
2017-11-12T12:24:20.896Z,1.3
2017-11-12T12:26:17.698Z,1.6
2017-11-12T12:28:18.460Z,1.4
2017-11-12T12:30:18.187Z,1
2017-11-12T12:32:17.965Z,1.5
2017-11-12T12:34:17.704Z,1.8
2017-11-12T12:36:17.448Z,1.4
2017-11-12T12:38:18.231Z,1.5
2017-11-12T12:40:17.963Z,1.4
2017-11-12T12:42:17.721Z,1.6
2017-11-12T12:44:18.499Z,1.8
2017-11-12T12:46:17.208Z,1.6
2017-11-12T12:48:20.941Z,1.5
2017-11-12T12:50:17.700Z,2.1
2017-11-12T12:52:21.430Z,2.6
2017-11-12T12:54:18.191Z,2.3
2017-11-12T12:56:17.945Z,2.2
2017-11-12T12:58:20.676Z,2.5
2017-11-12T13:00:18.468Z,2.5
2017-11-12T13:02:18.177Z,1.9
2017-11-12T13:04:17.925Z,2.6
2017-11-12T13:06:17.675Z,2.7
2017-11-12T13:08:18.412Z,2.9
2017-11-12T13:10:17.143Z,3.1
2017-11-12T13:12:17.912Z,2.7
2017-11-12T13:14:17.624Z,2.7
2017-11-12T13:16:17.387Z,2.8
2017-11-12T13:18:18.134Z,3.2
2017-11-12T13:20:17.821Z,2.9
2017-11-12T13:22:17.561Z,3.4
2017-11-12T13:24:21.328Z,2.4
2017-11-12T13:26:17.049Z,2.7
2017-11-12T13:28:17.793Z,2.1
2017-11-12T13:30:17.567Z,2.1
2017-11-12T13:32:18.281Z,2.4
2017-11-12T13:34:18.036Z,2.7
2017-11-12T13:36:16.787Z,2.9
2017-11-12T13:38:17.535Z,3
2017-11-12T13:40:17.290Z,2.4
2017-11-12T13:42:18.032Z,2
2017-11-12T13:44:20.778Z,2.7
2017-11-12T13:46:17.577Z,2.6
2017-11-12T13:48:18.285Z,2.4
2017-11-12T13:50:18.047Z,3
2017-11-12T13:52:17.824Z,2.3
2017-11-12T13:54:17.539Z,2.4
2017-11-12T13:56:17.300Z,2.1
2017-11-12T13:58:21.074Z,2.8
2017-11-12T14:00:17.805Z,2.6
2017-11-12T14:02:17.590Z,2.3
2017-11-12T14:04:18.336Z,3.2
2017-11-12T14:06:17.064Z,2.4
2017-11-12T14:08:17.802Z,2.3
2017-11-12T14:10:17.545Z,2.3
2017-11-12T14:12:21.283Z,2.3
2017-11-12T14:14:18.059Z,2.3
2017-11-12T14:16:16.834Z,2.5
2017-11-12T14:18:17.580Z,2.7
2017-11-12T14:20:18.314Z,2.8
2017-11-12T14:22:18.085Z,2.9
2017-11-12T14:24:17.808Z,2.6
2017-11-12T14:26:17.541Z,2.6
2017-11-12T14:28:18.312Z,3.1
2017-11-12T14:30:18.025Z,2.7
2017-11-12T14:32:17.758Z,2.9
2017-11-12T14:34:17.529Z,3.1
2017-11-12T14:36:17.230Z,2.9
2017-11-12T14:38:17.962Z,2.6
2017-11-12T14:40:17.704Z,2.7
2017-11-12T14:42:18.445Z,2.5
2017-11-12T14:44:18.193Z,2.9
2017-11-12T14:46:16.979Z,2.9
2017-11-12T14:48:17.688Z,2.4
2017-11-12T14:50:18.421Z,2.6
2017-11-12T14:52:18.191Z,2.8
2017-11-12T14:54:17.913Z,3.1
2017-11-12T14:56:17.660Z,2.7
2017-11-12T14:58:21.417Z,2.9
2017-11-12T15:00:18.146Z,2.8
2017-11-12T15:02:17.893Z,5.4
2017-11-12T15:04:17.652Z,5.9
2017-11-12T15:06:17.367Z,5.6
2017-11-12T15:08:18.091Z,6.6
2017-11-12T15:10:17.824Z,5.7
2017-11-12T15:12:17.552Z,6.2
2017-11-12T15:14:18.289Z,6.9
2017-11-12T15:16:17.054Z,7.5
2017-11-12T15:18:17.752Z,5
2017-11-12T15:20:17.511Z,4.7
2017-11-12T15:22:18.241Z,4.8
2017-11-12T15:24:17.938Z,6.3
2017-11-12T15:26:17.673Z,4.7
2017-11-12T15:28:21.427Z,5.5
2017-11-12T15:30:18.133Z,5
2017-11-12T15:32:17.860Z,4.9
2017-11-12T15:34:17.614Z,5
2017-11-12T15:36:17.343Z,4
2017-11-12T15:38:18.050Z,4.3
2017-11-12T15:40:17.764Z,3.6
2017-11-12T15:42:17.488Z,3.7
2017-11-12T15:46:17.981Z,3.5
2017-11-12T15:48:17.677Z,3.5
2017-11-12T15:50:18.404Z,3.3
2017-11-12T15:52:18.166Z,3.2
2017-11-12T15:54:17.865Z,3.1
2017-11-12T15:56:17.588Z,3.4
2017-11-12T15:58:18.348Z,3.1
2017-11-12T16:00:18.057Z,2.6
2017-11-12T16:02:17.788Z,3.6
2017-11-12T16:04:17.560Z,3.4
2017-11-12T16:06:17.259Z,3.6
2017-11-12T16:08:18.024Z,4.3
2017-11-12T16:10:17.729Z,3.2
2017-11-12T16:12:18.471Z,3.7
2017-11-12T16:14:21.180Z,4.2
2017-11-12T16:16:16.964Z,3.9
2017-11-12T16:18:17.658Z,3.4
2017-11-12T16:20:18.391Z,4.2
2017-11-12T16:22:18.139Z,3.6
2017-11-12T16:24:17.869Z,4.9
2017-11-12T16:26:17.560Z,7.4
2017-11-12T16:28:18.349Z,7.7
2017-11-12T16:30:18.037Z,4.5
2017-11-12T16:32:17.759Z,3.4
2017-11-12T16:34:17.519Z,4.4
2017-11-12T16:36:17.226Z,3.2
2017-11-12T16:38:17.964Z,4.1
2017-11-12T16:40:17.698Z,3.7
2017-11-12T16:42:18.430Z,3.6
2017-11-12T16:44:21.150Z,5.1
2017-11-12T16:46:17.906Z,4.7
2017-11-12T16:48:17.645Z,4.8
2017-11-12T16:50:18.398Z,5.6
2017-11-12T16:52:18.103Z,4.8
2017-11-12T16:54:17.823Z,5.7
2017-11-12T16:56:17.579Z,5.4
2017-11-12T16:58:18.266Z,5.1
2017-11-12T17:00:17.997Z,5.3
2017-11-12T17:02:17.747Z,5.9
2017-11-12T17:04:17.448Z,4.9
2017-11-12T17:06:17.171Z,5.6
2017-11-12T17:08:17.930Z,4.6
2017-11-12T17:10:17.616Z,4.8
2017-11-12T17:12:18.388Z,3.8
2017-11-12T17:14:18.110Z,4.2
2017-11-12T17:16:16.812Z,5.2
2017-11-12T17:18:17.531Z,6
2017-11-12T17:20:18.241Z,4.8
2017-11-12T17:22:17.967Z,4.6
2017-11-12T17:24:17.678Z,5.1
2017-11-12T17:26:17.431Z,4.7
2017-11-12T17:28:18.147Z,5
2017-11-12T17:30:17.826Z,5.4
2017-11-12T17:32:17.583Z,4
2017-11-12T17:34:18.270Z,5.4
2017-11-12T17:36:16.985Z,5.2
2017-11-12T17:38:17.727Z,4
2017-11-12T17:40:17.420Z,5.5
2017-11-12T17:42:18.141Z,5.1
2017-11-12T17:44:17.893Z,4.9
2017-11-12T17:46:17.588Z,5.3
2017-11-12T17:48:18.296Z,5.3
2017-11-12T17:50:18.016Z,4.6
2017-11-12T17:52:17.781Z,5.1
2017-11-12T17:54:17.457Z,5.4
2017-11-12T17:56:17.161Z,6
2017-11-12T17:58:17.882Z,5.8
2017-11-12T18:00:17.634Z,5.6
2017-11-12T18:02:18.344Z,6.6
2017-11-12T18:04:18.061Z,5.8
2017-11-12T18:06:16.804Z,6.4
2017-11-12T18:08:17.497Z,5.2
2017-11-12T18:10:17.228Z,6.1
2017-11-12T18:12:17.983Z,5.5
2017-11-12T18:14:17.686Z,7.6
2017-11-12T18:16:17.404Z,8.2
2017-11-12T18:18:18.158Z,8.3
2017-11-12T18:20:17.853Z,8.8
2017-11-12T18:22:17.575Z,9.9
2017-11-12T18:24:18.298Z,10.4
2017-11-12T18:26:17.009Z,10.5
2017-11-12T18:28:20.709Z,13.4
2017-11-12T18:30:18.462Z,12.2
2017-11-12T18:32:18.140Z,11.8
2017-11-12T18:34:17.858Z,11.3
2017-11-12T18:36:17.613Z,11.2
2017-11-12T18:38:18.286Z,11.7
2017-11-12T18:40:17.012Z,14.5
2017-11-12T18:42:17.724Z,13.2
2017-11-12T18:44:18.419Z,9.8
2017-11-12T18:46:17.133Z,9
2017-11-12T18:48:17.867Z,10.7
2017-11-12T18:50:17.546Z,11.6
2017-11-12T18:52:18.261Z,10.7
2017-11-12T18:54:18.010Z,10.6
2017-11-12T18:56:16.720Z,11.2
2017-11-12T18:58:17.416Z,12.6
2017-11-12T19:00:18.160Z,11.5
2017-11-12T19:02:17.909Z,11.8
2017-11-12T19:04:17.605Z,10.8
2017-11-12T19:06:17.329Z,11.2
2017-11-12T19:08:18.052Z,9.9
2017-11-12T19:10:17.807Z,10.2
2017-11-12T19:12:17.496Z,9.7
2017-11-12T19:14:21.197Z,9
2017-11-12T19:16:16.978Z,9.8
2017-11-12T19:18:17.699Z,10.1
2017-11-12T19:20:18.356Z,9
2017-11-12T19:22:21.107Z,8.3
2017-11-12T19:24:17.821Z,9
2017-11-12T19:26:17.525Z,9.6
2017-11-12T19:28:18.292Z,10.5
2017-11-12T19:30:17.971Z,10.6
2017-11-12T19:32:17.685Z,9.6
2017-11-12T19:34:18.422Z,10.9
2017-11-12T19:36:17.088Z,10.7
2017-11-12T19:38:17.820Z,10.1
2017-11-12T19:40:17.566Z,9.9
2017-11-12T19:42:18.278Z,8.8
2017-11-12T19:44:18.001Z,9.9
2017-11-12T19:46:16.780Z,11.4
2017-11-12T19:48:17.466Z,10.2
2017-11-12T19:50:18.184Z,9.5
2017-11-12T19:52:17.901Z,10.5
2017-11-12T19:54:17.618Z,10
2017-11-12T19:56:17.339Z,11.2
2017-11-12T19:58:18.089Z,11.6
2017-11-12T20:00:17.782Z,9.5
2017-11-12T20:02:17.507Z,8.9
2017-11-12T20:04:18.253Z,8.5
2017-11-12T20:06:17.948Z,10
2017-11-12T20:08:17.684Z,10.2
2017-11-12T20:10:17.390Z,9.9
2017-11-12T20:12:18.108Z,9.8
2017-11-12T20:14:17.826Z,9.6
2017-11-12T20:16:17.563Z,11.4
2017-11-12T20:18:18.254Z,10.5
2017-11-12T20:20:18.005Z,9.1
2017-11-12T20:22:17.716Z,9.1
2017-11-12T20:24:18.387Z,8
2017-11-12T20:26:17.093Z,8.4
2017-11-12T20:28:17.831Z,7.8
2017-11-12T20:30:17.516Z,9
2017-11-12T20:32:18.237Z,12.5
2017-11-12T20:34:17.992Z,10.4
2017-11-12T20:36:17.701Z,9.6
2017-11-12T20:38:18.396Z,9.1
2017-11-12T20:40:17.118Z,7.3
2017-11-12T20:42:17.834Z,7.4
2017-11-12T20:44:17.555Z,6.7
2017-11-12T20:46:17.273Z,7.3
2017-11-12T20:48:17.981Z,7.7
2017-11-12T20:50:17.730Z,8.2
2017-11-12T20:52:17.445Z,7.2
2017-11-12T20:54:18.128Z,7.2
2017-11-12T20:56:16.882Z,8.6
2017-11-12T20:58:17.574Z,7.1
2017-11-12T21:00:18.297Z,6.9
2017-11-12T21:02:18.050Z,7
2017-11-12T21:04:17.737Z,6.6
2017-11-12T21:06:17.463Z,6.9
2017-11-12T21:08:18.190Z,7
2017-11-12T21:10:17.869Z,8
2017-11-12T21:12:17.583Z,7.8
2017-11-12T21:14:18.316Z,7.5
2017-11-12T21:16:17.002Z,7.4
2017-11-12T21:18:17.710Z,8.2
2017-11-12T21:20:18.417Z,7.9
2017-11-12T21:22:18.134Z,7.7
2017-11-12T21:24:17.890Z,6.1
2017-11-12T21:26:17.582Z,6.9
2017-11-12T21:28:18.278Z,7
2017-11-12T21:30:18.013Z,7.5
2017-11-12T21:32:17.700Z,6.4
2017-11-12T21:34:18.408Z,6.4
2017-11-12T21:36:17.151Z,7
2017-11-12T21:38:17.830Z,6.8
2017-11-12T21:40:17.549Z,7.1
2017-11-12T21:42:18.300Z,9.6
2017-11-12T21:44:18.011Z,10.1
2017-11-12T21:46:16.725Z,6.9
2017-11-12T21:48:18.464Z,6.8
2017-11-12T21:50:18.153Z,7.3
2017-11-12T21:52:17.871Z,6.5
2017-11-12T21:54:17.621Z,6.2
2017-11-12T21:56:17.297Z,7.5
2017-11-12T21:58:18.010Z,6.5
2017-11-12T22:00:17.718Z,6.6
2017-11-12T22:02:18.433Z,7
2017-11-12T22:04:21.134Z,7
2017-11-12T22:06:16.884Z,7
2017-11-12T22:08:17.599Z,6.1
2017-11-12T22:10:17.355Z,7
2017-11-12T22:12:18.041Z,7.9
2017-11-12T22:14:17.765Z,7.2
2017-11-12T22:16:17.514Z,6.7
2017-11-12T22:18:18.193Z,7.9
2017-11-12T22:20:17.913Z,6.7
2017-11-12T22:22:17.657Z,7.4
2017-11-12T22:24:18.338Z,7.7
2017-11-12T22:26:17.085Z,7.6
2017-11-12T22:28:17.790Z,6.4
2017-11-12T22:30:17.470Z,6.6
2017-11-12T22:32:18.184Z,6.7
2017-11-12T22:34:17.917Z,7.4
2017-11-12T22:36:17.612Z,7.2
2017-11-12T22:38:18.312Z,7.2
2017-11-12T22:40:17.038Z,6.1
2017-11-12T22:42:17.767Z,6.1
2017-11-12T22:44:17.437Z,6.5
2017-11-12T22:46:17.147Z,6.2
2017-11-12T22:48:17.853Z,6.2
2017-11-12T22:50:17.547Z,5.5
2017-11-12T22:52:18.243Z,6.3
2017-11-12T22:54:17.964Z,6.1
2017-11-12T22:56:17.702Z,5
2017-11-12T22:58:18.393Z,5.8
2017-11-12T23:00:18.064Z,5.7
2017-11-12T23:02:17.797Z,5.3
2017-11-12T23:04:17.473Z,5.4
2017-11-12T23:06:17.161Z,5.2
2017-11-12T23:08:17.884Z,5.9
2017-11-12T23:10:17.555Z,4.4
2017-11-12T23:12:18.253Z,4.4
2017-11-12T23:14:17.989Z,3.7
2017-11-12T23:16:16.673Z,4.3
2017-11-12T23:18:17.353Z,3.6
2017-11-12T23:20:18.048Z,3.2
2017-11-12T23:22:17.731Z,3.6
2017-11-12T23:24:18.416Z,3.5
2017-11-12T23:26:17.101Z,2.9
2017-11-12T23:28:17.789Z,2.7
2017-11-12T23:30:17.523Z,3.1
2017-11-12T23:32:18.194Z,2.4
2017-11-12T23:34:17.897Z,2.5
2017-11-12T23:36:17.636Z,2.3
2017-11-12T23:38:18.314Z,2.2
2017-11-12T23:40:17.020Z,2.7
2017-11-12T23:42:17.755Z,2.6
2017-11-12T23:44:17.430Z,2.1
2017-11-12T23:46:17.140Z,2.2
2017-11-12T23:48:17.876Z,2.4
2017-11-12T23:50:17.552Z,1.8
2017-11-12T23:52:18.257Z,1.7
2017-11-12T23:54:17.992Z,1.7
2017-11-12T23:56:17.666Z,1.9
2017-11-12T23:58:18.367Z,1.6
